createdAt,value
2019-02-06T00:00:33.465Z,21
2019-02-06T00:01:17.520Z,20.9
2019-02-06T00:02:07.290Z,20.9
2019-02-06T00:03:00.687Z,20.9
2019-02-06T00:03:47.683Z,20.9
2019-02-06T00:04:38.002Z,20.9
2019-02-06T00:05:27.565Z,20.9
2019-02-06T00:06:17.363Z,20.9
2019-02-06T00:07:07.447Z,20.9
2019-02-06T00:07:57.568Z,20.9
2019-02-06T00:08:50.047Z,21
2019-02-06T00:09:37.773Z,20.9
2019-02-06T00:10:28.377Z,20.9
2019-02-06T00:11:17.677Z,20.9
2019-02-06T00:12:08.060Z,20.9
2019-02-06T00:12:58.395Z,20.9
2019-02-06T00:13:48.690Z,20.9
2019-02-06T00:14:39.617Z,20.9
2019-02-06T00:15:27.522Z,20.9
2019-02-06T00:16:18.775Z,20.9
2019-02-06T00:17:07.691Z,20.9
2019-02-06T00:18:00.180Z,20.9
2019-02-06T00:18:48.610Z,20.9
2019-02-06T00:19:37.597Z,20.9
2019-02-06T00:20:28.912Z,20.9
2019-02-06T00:21:22.232Z,20.9
2019-02-06T00:22:08.366Z,20.9
2019-02-06T00:22:58.241Z,20.9
2019-02-06T00:23:51.572Z,20.9
2019-02-06T00:24:39.484Z,20.9
2019-02-06T00:25:28.306Z,20.9
2019-02-06T00:26:18.643Z,20.9
2019-02-06T00:27:08.706Z,20.9
2019-02-06T00:27:59.047Z,20.9
2019-02-06T00:28:48.566Z,20.9
2019-02-06T00:29:39.520Z,20.9
2019-02-06T00:30:28.966Z,20.9
2019-02-06T00:31:19.363Z,20.9
2019-02-06T00:32:09.461Z,20.9
2019-02-06T00:33:01.626Z,20.9
2019-02-06T00:33:49.819Z,20.9
2019-02-06T00:34:39.305Z,20.9
2019-02-06T00:35:32.084Z,20.9
2019-02-06T00:36:20.540Z,20.9
2019-02-06T00:37:09.527Z,20.9
2019-02-06T00:38:00.080Z,20.9
2019-02-06T00:38:49.833Z,20.9
2019-02-06T00:39:39.657Z,20.9
2019-02-06T00:40:30.485Z,20.9
2019-02-06T00:41:19.417Z,20.9
2019-02-06T00:42:12.599Z,20.9
2019-02-06T00:43:00.082Z,20.9
2019-02-06T00:43:49.870Z,20.9
2019-02-06T00:44:40.339Z,20.9
2019-02-06T00:45:30.575Z,20.9
2019-02-06T00:46:20.592Z,20.9
2019-02-06T00:47:10.972Z,20.9
2019-02-06T00:48:00.322Z,20.9
2019-02-06T00:48:50.560Z,20.9
2019-02-06T00:49:40.577Z,20.9
2019-02-06T00:50:30.407Z,20.9
2019-02-06T00:51:22.949Z,20.9
2019-02-06T00:52:10.852Z,20.9
2019-02-06T00:53:01.092Z,20.9
2019-02-06T00:53:50.867Z,20.9
2019-02-06T00:54:41.286Z,20.9
2019-02-06T00:55:31.122Z,20.9
2019-02-06T00:56:21.052Z,20.9
2019-02-06T00:57:12.102Z,20.9
2019-02-06T00:58:00.991Z,20.9
2019-02-06T00:58:51.234Z,20.9
2019-02-06T00:59:40.534Z,20.9
2019-02-06T01:00:34.216Z,20.9
2019-02-06T01:01:21.683Z,20.9
2019-02-06T01:02:11.841Z,20.9
2019-02-06T01:03:01.529Z,20.9
2019-02-06T01:03:51.714Z,20.9
2019-02-06T01:04:41.338Z,20.9
2019-02-06T01:05:44.447Z,20.9
2019-02-06T01:06:23.596Z,20.9
2019-02-06T01:07:11.942Z,20.9
2019-02-06T01:08:01.597Z,20.9
2019-02-06T01:08:52.486Z,20.9
2019-02-06T01:09:43.676Z,20.9
2019-02-06T01:10:32.121Z,20.9
2019-02-06T01:11:21.558Z,20.9
2019-02-06T01:12:11.728Z,20.9
2019-02-06T01:13:02.273Z,20.9
2019-02-06T01:13:51.851Z,20.9
2019-02-06T01:14:42.168Z,20.9
2019-02-06T01:15:34.375Z,20.9
2019-02-06T01:16:22.758Z,20.9
2019-02-06T01:17:12.518Z,20.9
2019-02-06T01:18:02.651Z,20.9
2019-02-06T01:18:52.718Z,20.9
2019-02-06T01:19:43.138Z,20.9
2019-02-06T01:20:32.468Z,20.9
2019-02-06T01:21:23.256Z,20.9
2019-02-06T01:22:12.468Z,20.9
2019-02-06T01:23:02.153Z,20.9
2019-02-06T01:23:53.592Z,20.9
2019-02-06T01:24:45.604Z,20.9
2019-02-06T01:25:32.632Z,20.9
2019-02-06T01:26:23.570Z,20.9
2019-02-06T01:27:13.347Z,20.9
2019-02-06T01:28:03.774Z,20.9
2019-02-06T01:28:53.602Z,20.9
2019-02-06T01:29:43.179Z,20.9
2019-02-06T01:30:35.002Z,20.9
2019-02-06T01:31:23.789Z,20.9
2019-02-06T01:32:13.599Z,20.9
2019-02-06T01:33:03.684Z,20.9
2019-02-06T01:33:53.972Z,20.9
2019-02-06T01:34:44.097Z,20.9
2019-02-06T01:35:33.704Z,20.9
2019-02-06T01:36:24.111Z,20.9
2019-02-06T01:37:14.339Z,20.9
2019-02-06T01:38:03.699Z,20.9
2019-02-06T01:38:53.224Z,20.9
2019-02-06T01:39:46.169Z,20.9
2019-02-06T01:40:34.476Z,20.9
2019-02-06T01:41:24.572Z,20.9
2019-02-06T01:42:14.573Z,20.9
2019-02-06T01:43:03.794Z,20.9
2019-02-06T01:43:53.821Z,21
2019-02-06T01:44:44.566Z,20.9
2019-02-06T01:45:35.866Z,21
2019-02-06T01:46:24.591Z,20.9
2019-02-06T01:47:15.065Z,21
2019-02-06T01:48:04.168Z,20.9
2019-02-06T01:48:57.375Z,21
2019-02-06T01:49:47.635Z,20.9
2019-02-06T01:50:35.134Z,20.9
2019-02-06T01:51:25.210Z,20.9
2019-02-06T01:52:15.008Z,21
2019-02-06T01:53:04.208Z,20.9
2019-02-06T01:53:55.252Z,20.9
2019-02-06T01:54:47.208Z,20.9
2019-02-06T01:55:35.225Z,21
2019-02-06T01:56:25.357Z,20.9
2019-02-06T01:57:15.122Z,20.9
2019-02-06T01:58:05.850Z,20.9
2019-02-06T01:58:55.181Z,20.9
2019-02-06T01:59:45.645Z,20.9
2019-02-06T02:00:36.888Z,20.9
2019-02-06T02:01:25.930Z,20.9
2019-02-06T02:02:15.428Z,20.9
2019-02-06T02:03:06.149Z,20.9
2019-02-06T02:03:57.977Z,20.9
2019-02-06T02:04:46.262Z,20.9
2019-02-06T02:05:38.739Z,20.9
2019-02-06T02:06:25.800Z,20.9
2019-02-06T02:07:14.872Z,21
2019-02-06T02:08:05.349Z,20.9
2019-02-06T02:08:55.892Z,20.9
2019-02-06T02:09:47.829Z,21
2019-02-06T02:10:36.011Z,20.9
2019-02-06T02:11:26.067Z,20.9
2019-02-06T02:12:15.904Z,20.9
2019-02-06T02:13:08.519Z,20.9
2019-02-06T02:13:55.969Z,20.9
2019-02-06T02:14:46.309Z,20.9
2019-02-06T02:15:36.351Z,20.9
2019-02-06T02:16:26.799Z,21
2019-02-06T02:17:17.036Z,20.9
2019-02-06T02:18:05.777Z,20.9
2019-02-06T02:18:58.494Z,20.9
2019-02-06T02:19:47.221Z,20.9
2019-02-06T02:20:37.404Z,20.9
2019-02-06T02:21:26.805Z,20.9
2019-02-06T02:22:17.027Z,20.9
2019-02-06T02:23:07.169Z,20.9
2019-02-06T02:23:57.618Z,20.9
2019-02-06T02:24:47.817Z,20.9
2019-02-06T02:25:37.048Z,20.9
2019-02-06T02:26:26.563Z,20.9
2019-02-06T02:27:17.183Z,20.9
2019-02-06T02:28:10.236Z,20.9
2019-02-06T02:28:57.593Z,20.9
2019-02-06T02:29:47.633Z,20.9
2019-02-06T02:30:37.756Z,20.9
2019-02-06T02:31:31.610Z,20.9
2019-02-06T02:32:17.843Z,20.9
2019-02-06T02:33:07.620Z,20.9
2019-02-06T02:33:56.851Z,20.9
2019-02-06T02:34:47.437Z,20.9
2019-02-06T02:35:37.816Z,20.9
2019-02-06T02:36:27.880Z,20.9
2019-02-06T02:37:21.161Z,20.9
2019-02-06T02:38:08.923Z,20.9
2019-02-06T02:38:58.018Z,20.9
2019-02-06T02:39:48.790Z,20.9
2019-02-06T02:40:38.727Z,20.9
2019-02-06T02:41:28.480Z,20.9
2019-02-06T02:42:17.942Z,20.9
2019-02-06T02:43:09.122Z,20.9
2019-02-06T02:43:58.950Z,20.9
2019-02-06T02:44:48.708Z,20.9
2019-02-06T02:45:38.986Z,20.9
2019-02-06T02:46:31.545Z,20.9
2019-02-06T02:47:19.312Z,20.9
2019-02-06T02:48:09.274Z,20.9
2019-02-06T02:48:59.759Z,20.9
2019-02-06T02:49:49.052Z,20.9
2019-02-06T02:50:38.597Z,20.9
2019-02-06T02:51:29.545Z,20.9
2019-02-06T02:52:19.947Z,20.9
2019-02-06T02:53:09.124Z,20.9
2019-02-06T02:53:59.449Z,20.9
2019-02-06T02:54:49.725Z,20.9
2019-02-06T02:55:43.314Z,20.9
2019-02-06T02:56:29.950Z,20.9
2019-02-06T02:57:19.607Z,20.9
2019-02-06T02:58:09.513Z,20.9
2019-02-06T02:58:59.749Z,20.9
2019-02-06T02:59:49.508Z,20.9
2019-02-06T03:00:39.876Z,20.9
2019-02-06T03:01:31.490Z,20.9
2019-02-06T03:02:20.561Z,20.9
2019-02-06T03:03:09.756Z,20.9
2019-02-06T03:04:00.240Z,20.9
2019-02-06T03:04:52.145Z,20.9
2019-02-06T03:08:23.935Z,20.9
2019-02-06T03:09:12.191Z,20.9
2019-02-06T03:10:02.712Z,20.9
2019-02-06T03:10:52.108Z,20.9
2019-02-06T03:11:42.930Z,20.9
2019-02-06T03:12:32.128Z,20.9
2019-02-06T03:13:21.949Z,20.9
2019-02-06T03:14:12.600Z,20.9
2019-02-06T03:15:03.195Z,20.9
2019-02-06T03:15:52.982Z,20.9
2019-02-06T03:16:42.825Z,20.9
2019-02-06T03:17:35.713Z,20.9
2019-02-06T03:18:22.298Z,20.9
2019-02-06T03:19:13.221Z,20.9
2019-02-06T03:20:03.307Z,20.9
2019-02-06T03:20:53.542Z,20.9
2019-02-06T03:21:43.373Z,20.9
2019-02-06T03:22:37.015Z,20.9
2019-02-06T03:23:24.050Z,20.9
2019-02-06T03:24:13.077Z,20.9
2019-02-06T03:25:03.967Z,20.9
2019-02-06T03:25:53.467Z,20.9
2019-02-06T03:26:46.014Z,20.9
2019-02-06T03:27:33.790Z,20.9
2019-02-06T03:28:23.555Z,20.9
2019-02-06T03:29:13.327Z,20.9
2019-02-06T03:30:03.031Z,21
2019-02-06T03:30:53.636Z,20.9
2019-02-06T03:31:43.900Z,20.9
2019-02-06T03:32:33.883Z,20.9
2019-02-06T03:33:24.851Z,20.9
2019-02-06T03:34:13.767Z,20.9
2019-02-06T03:35:04.044Z,20.9
2019-02-06T03:35:57.089Z,20.9
2019-02-06T03:36:47.385Z,20.9
2019-02-06T03:37:34.454Z,20.9
2019-02-06T03:38:24.298Z,20.9
2019-02-06T03:39:14.359Z,20.9
2019-02-06T03:40:04.356Z,20.9
2019-02-06T03:40:54.183Z,20.9
2019-02-06T03:41:46.561Z,20.9
2019-02-06T03:42:34.014Z,20.9
2019-02-06T03:43:25.014Z,20.9
2019-02-06T03:44:14.493Z,20.9
2019-02-06T03:45:05.387Z,20.9
2019-02-06T03:45:54.846Z,20.9
2019-02-06T03:46:45.258Z,20.9
2019-02-06T03:47:35.568Z,20.9
2019-02-06T03:48:25.230Z,20.9
2019-02-06T03:49:14.294Z,20.9
2019-02-06T03:50:05.179Z,20.9
2019-02-06T03:50:57.583Z,20.9
2019-02-06T03:51:45.652Z,20.9
2019-02-06T03:52:35.025Z,20.9
2019-02-06T03:53:25.053Z,20.9
2019-02-06T03:54:15.615Z,20.9
2019-02-06T03:55:05.488Z,20.9
2019-02-06T03:55:55.505Z,20.9
2019-02-06T03:56:45.918Z,20.9
2019-02-06T03:57:35.918Z,20.9
2019-02-06T03:58:25.115Z,20.9
2019-02-06T03:59:16.002Z,20.9
2019-02-06T04:00:08.570Z,20.9
2019-02-06T04:00:55.826Z,20.9
2019-02-06T04:01:45.874Z,20.9
2019-02-06T04:02:35.932Z,20.9
2019-02-06T04:03:26.297Z,20.9
2019-02-06T04:04:16.057Z,20.9
2019-02-06T04:05:06.089Z,20.9
2019-02-06T04:05:57.980Z,20.9
2019-02-06T04:07:07.874Z,20.9
2019-02-06T04:07:36.020Z,20.9
2019-02-06T04:08:26.085Z,20.9
2019-02-06T04:09:17.266Z,20.9
2019-02-06T04:10:06.144Z,20.9
2019-02-06T04:10:56.287Z,20.9
2019-02-06T04:11:46.988Z,20.9
2019-02-06T04:12:36.433Z,20.9
2019-02-06T04:13:26.715Z,20.9
2019-02-06T04:14:16.562Z,20.9
2019-02-06T04:15:10.027Z,20.9
2019-02-06T04:15:57.306Z,20.9
2019-02-06T04:16:47.389Z,20.9
2019-02-06T04:17:35.343Z,20.9
2019-02-06T04:18:26.547Z,20.9
2019-02-06T04:19:16.616Z,20.9
2019-02-06T04:20:07.044Z,20.9
2019-02-06T04:20:57.723Z,20.9
2019-02-06T04:21:47.699Z,20.9
2019-02-06T04:22:36.828Z,20.9
2019-02-06T04:23:27.444Z,20.9
2019-02-06T04:24:20.198Z,20.9
2019-02-06T04:25:07.399Z,20.9
2019-02-06T04:25:57.886Z,20.9
2019-02-06T04:26:47.919Z,20.9
2019-02-06T04:27:38.088Z,20.9
2019-02-06T04:28:27.748Z,20.9
2019-02-06T04:29:17.841Z,20.9
2019-02-06T04:30:08.430Z,20.9
2019-02-06T04:30:58.364Z,20.9
2019-02-06T04:31:48.035Z,20.9
2019-02-06T04:32:37.839Z,20.9
2019-02-06T04:33:30.686Z,20.9
2019-02-06T06:06:20.579Z,20.9
2019-02-06T06:07:11.757Z,20.9
2019-02-06T06:08:04.117Z,20.9
2019-02-06T06:08:51.146Z,20.9
2019-02-06T06:09:41.445Z,20.9
2019-02-06T06:10:32.067Z,20.9
2019-02-06T06:11:22.099Z,20.9
2019-02-06T06:12:12.427Z,20.9
2019-02-06T06:13:01.904Z,20.9
2019-02-06T06:13:52.854Z,20.9
2019-02-06T06:14:42.846Z,20.9
2019-02-06T06:15:32.353Z,20.9
2019-02-06T06:16:22.679Z,20.9
2019-02-06T06:17:14.023Z,20.9
2019-02-06T06:18:02.801Z,20.9
2019-02-06T06:18:53.077Z,20.9
2019-02-06T06:19:42.916Z,20.9
2019-02-06T06:20:32.944Z,20.9
2019-02-06T06:21:22.973Z,20.9
2019-02-06T06:22:13.066Z,20.9
2019-02-06T06:23:05.218Z,20.9
2019-02-06T06:23:53.153Z,20.9
2019-02-06T06:24:42.663Z,20.9
2019-02-06T06:25:33.383Z,20.9
2019-02-06T06:26:23.072Z,20.9
2019-02-06T06:27:13.421Z,20.9
2019-02-06T06:28:03.758Z,20.9
2019-02-06T06:28:54.334Z,20.9
2019-02-06T06:29:43.638Z,20.9
2019-02-06T06:30:33.573Z,20.9
2019-02-06T06:31:23.437Z,20.9
2019-02-06T06:32:15.818Z,20.9
2019-02-06T06:33:04.180Z,20.9
2019-02-06T06:33:53.651Z,20.9
2019-02-06T06:34:43.120Z,20.9
2019-02-06T06:35:33.422Z,20.9
2019-02-06T06:36:23.751Z,20.9
2019-02-06T06:37:14.277Z,20.9
2019-02-06T06:38:09.359Z,20.9
2019-02-06T06:38:54.324Z,20.9
2019-02-06T06:39:44.550Z,20.9
2019-02-06T06:40:33.511Z,20.9
2019-02-06T06:41:23.950Z,20.9
2019-02-06T06:42:13.950Z,20.9
2019-02-06T06:43:04.585Z,20.9
2019-02-06T06:43:54.567Z,20.9
2019-02-06T06:44:44.342Z,20.9
2019-02-06T06:45:34.700Z,20.9
2019-02-06T06:46:23.617Z,20.9
2019-02-06T06:47:17.179Z,20.9
2019-02-06T06:48:04.592Z,20.9
2019-02-06T06:48:54.362Z,20.9
2019-02-06T06:49:45.002Z,20.9
2019-02-06T06:50:35.534Z,20.9
2019-02-06T06:51:25.419Z,20.9
2019-02-06T06:52:14.864Z,20.9
2019-02-06T06:53:05.441Z,20.9
2019-02-06T06:53:54.675Z,20.9
2019-02-06T06:54:45.336Z,20.9
2019-02-06T06:55:38.306Z,20.9
2019-02-06T06:56:26.606Z,20.9
2019-02-06T06:57:18.079Z,20.9
2019-02-06T06:58:05.318Z,20.9
2019-02-06T06:58:55.990Z,20.9
2019-02-06T06:59:45.418Z,20.9
2019-02-06T07:00:34.881Z,20.9
2019-02-06T07:01:25.345Z,20.9
2019-02-06T07:02:16.731Z,20.9
2019-02-06T07:03:05.242Z,20.9
2019-02-06T07:03:55.696Z,20.9
2019-02-06T07:06:21.672Z,20.9
2019-02-06T07:07:11.401Z,20.9
2019-02-06T07:08:17.619Z,20.9
2019-02-06T07:08:51.775Z,20.9
2019-02-06T07:09:42.215Z,20.9
2019-02-06T07:10:32.518Z,20.9
2019-02-06T07:11:23.999Z,20.9
2019-02-06T07:12:12.283Z,20.9
2019-02-06T07:13:01.902Z,20.9
2019-02-06T07:13:55.627Z,20.9
2019-02-06T07:14:42.525Z,20.9
2019-02-06T07:15:32.671Z,20.9
2019-02-06T07:16:22.030Z,20.9
2019-02-06T07:17:13.600Z,20.9
2019-02-06T07:18:02.498Z,20.9
2019-02-06T07:18:53.025Z,20.9
2019-02-06T07:19:42.944Z,20.9
2019-02-06T07:20:34.999Z,20.9
2019-02-06T07:21:22.642Z,20.9
2019-02-06T07:22:13.259Z,20.9
2019-02-06T07:23:02.517Z,20.9
2019-02-06T07:23:52.550Z,20.9
2019-02-06T07:24:42.874Z,20.9
2019-02-06T07:25:32.159Z,20.9
2019-02-06T07:26:24.379Z,20.9
2019-02-06T07:27:13.079Z,20.9
2019-02-06T07:28:03.515Z,20.9
2019-02-06T07:28:52.369Z,20.9
2019-02-06T07:29:45.054Z,20.9
2019-02-06T07:30:33.354Z,20.9
2019-02-06T07:31:24.006Z,20.9
2019-02-06T07:32:13.694Z,20.9
2019-02-06T07:33:02.711Z,20.9
2019-02-06T07:33:53.099Z,20.9
2019-02-06T07:34:43.601Z,20.9
2019-02-06T07:35:35.447Z,20.9
2019-02-06T07:36:23.146Z,20.9
2019-02-06T07:37:13.621Z,20.9
2019-02-06T07:38:03.558Z,20.9
2019-02-06T07:38:54.521Z,20.9
2019-02-06T07:39:43.492Z,20.9
2019-02-06T07:40:34.046Z,20.9
2019-02-06T07:41:24.808Z,20.9
2019-02-06T07:42:14.353Z,20.9
2019-02-06T07:43:04.888Z,20.9
2019-02-06T07:43:53.929Z,20.9
2019-02-06T07:44:46.998Z,20.9
2019-02-06T07:45:34.622Z,20.9
2019-02-06T07:46:25.008Z,20.9
2019-02-06T07:47:15.000Z,20.9
2019-02-06T07:48:04.148Z,20.9
2019-02-06T07:48:54.878Z,20.9
2019-02-06T07:49:44.910Z,20.9
2019-02-06T07:50:35.770Z,20.9
2019-02-06T07:51:25.097Z,20.9
2019-02-06T07:52:14.626Z,20.9
2019-02-06T07:53:05.020Z,20.9
2019-02-06T07:53:57.442Z,20.9
2019-02-06T07:54:44.990Z,20.9
2019-02-06T07:55:34.776Z,20.9
2019-02-06T07:56:24.897Z,20.9
2019-02-06T07:57:14.857Z,20.9
2019-02-06T07:58:05.266Z,20.9
2019-02-06T07:58:56.709Z,20.9
2019-02-06T07:59:47.759Z,20.9
2019-02-06T08:00:35.239Z,20.9
2019-02-06T08:01:25.654Z,20.9
2019-02-06T08:02:15.312Z,20.9
2019-02-06T08:03:05.889Z,20.9
2019-02-06T08:03:55.098Z,20.9
2019-02-06T08:04:47.908Z,20.9
2019-02-06T08:05:36.439Z,20.9
2019-02-06T08:06:25.804Z,20.9
2019-02-06T08:07:15.848Z,20.9
2019-02-06T08:08:05.707Z,20.9
2019-02-06T08:08:58.309Z,20.9
2019-02-06T08:09:45.742Z,20.9
2019-02-06T08:10:36.363Z,20.9
2019-02-06T08:11:26.160Z,20.9
2019-02-06T08:12:16.764Z,20.9
2019-02-06T08:13:05.846Z,20.8
2019-02-06T08:13:56.303Z,20.9
2019-02-06T08:14:47.790Z,20.9
2019-02-06T08:15:36.412Z,20.9
2019-02-06T08:16:26.778Z,20.9
2019-02-06T08:17:16.255Z,20.9
2019-02-06T08:18:08.767Z,20.9
2019-02-06T08:18:56.952Z,20.9
2019-02-06T08:19:46.869Z,20.9
2019-02-06T08:20:36.791Z,20.9
2019-02-06T08:21:26.287Z,20.9
2019-02-06T08:22:17.004Z,20.9
2019-02-06T08:23:06.974Z,20.9
2019-02-06T08:23:59.127Z,20.9
2019-02-06T08:24:47.344Z,20.9
2019-02-06T08:25:37.274Z,20.9
2019-02-06T08:26:27.211Z,20.9
2019-02-06T08:27:18.498Z,20.8
2019-02-06T08:28:06.811Z,20.9
2019-02-06T08:28:57.090Z,20.9
2019-02-06T08:29:47.686Z,20.9
2019-02-06T08:30:37.613Z,20.8
2019-02-06T08:31:28.181Z,20.8
2019-02-06T08:32:17.596Z,20.8
2019-02-06T08:33:09.433Z,20.9
2019-02-06T08:33:57.444Z,20.9
2019-02-06T08:34:47.776Z,20.8
2019-02-06T08:35:38.113Z,20.9
2019-02-06T08:36:28.122Z,20.8
2019-02-06T08:37:17.913Z,20.8
2019-02-06T08:38:08.654Z,20.8
2019-02-06T08:39:01.670Z,20.9
2019-02-06T08:39:48.653Z,20.8
2019-02-06T08:40:38.588Z,20.9
2019-02-06T08:41:28.218Z,20.9
2019-02-06T08:42:20.348Z,20.9
2019-02-06T08:43:08.660Z,20.9
2019-02-06T08:43:58.423Z,20.9
2019-02-06T08:44:48.841Z,20.9
2019-02-06T08:45:39.175Z,20.8
2019-02-06T08:46:28.797Z,20.8
2019-02-06T08:47:19.028Z,20.9
2019-02-06T08:48:09.458Z,20.9
2019-02-06T08:48:59.021Z,20.9
2019-02-06T08:49:49.270Z,20.9
2019-02-06T08:50:39.120Z,20.9
2019-02-06T08:51:30.815Z,20.9
2019-02-06T08:52:19.018Z,20.9
2019-02-06T08:53:09.427Z,20.9
2019-02-06T08:53:59.212Z,20.9
2019-02-06T08:54:49.544Z,20.9
2019-02-06T08:55:38.939Z,20.8
2019-02-06T08:56:29.031Z,20.8
2019-02-06T08:57:21.427Z,20.8
2019-02-06T08:58:09.442Z,20.9
2019-02-06T08:58:59.697Z,20.9
2019-02-06T08:59:49.225Z,20.8
2019-02-06T09:00:41.759Z,20.8
2019-02-06T09:01:29.624Z,20.8
2019-02-06T09:02:18.823Z,20.8
2019-02-06T09:03:09.765Z,20.9
2019-02-06T09:03:59.782Z,20.8
2019-02-06T09:05:02.236Z,20.8
2019-02-06T09:05:39.428Z,20.8
2019-02-06T09:06:31.819Z,20.8
2019-02-06T09:07:19.864Z,20.8
2019-02-06T09:08:09.889Z,20.8
2019-02-06T09:09:05.984Z,20.8
2019-02-06T09:09:50.224Z,20.8
2019-02-06T09:10:40.579Z,20.8
2019-02-06T09:11:30.334Z,20.8
2019-02-06T09:12:19.998Z,20.8
2019-02-06T09:13:10.758Z,20.8
2019-02-06T09:14:00.787Z,20.8
2019-02-06T09:14:50.009Z,20.8
2019-02-06T09:15:43.091Z,20.8
2019-02-06T09:16:31.218Z,20.8
2019-02-06T09:17:21.373Z,20.8
2019-02-06T09:18:11.057Z,20.8
2019-02-06T09:19:01.161Z,20.8
2019-02-06T09:19:50.998Z,20.8
2019-02-06T09:20:40.946Z,20.8
2019-02-06T09:21:31.874Z,20.8
2019-02-06T09:22:21.626Z,20.8
2019-02-06T09:23:11.185Z,20.8
2019-02-06T09:24:01.356Z,20.8
2019-02-06T09:24:53.915Z,20.8
2019-02-06T09:25:41.845Z,20.8
2019-02-06T09:26:37.788Z,20.8
2019-02-06T09:27:21.463Z,20.8
2019-02-06T09:28:11.746Z,20.8
2019-02-06T09:29:01.648Z,20.8
2019-02-06T09:29:52.135Z,20.8
2019-02-06T09:30:43.703Z,20.8
2019-02-06T09:31:31.977Z,20.8
2019-02-06T09:32:22.138Z,20.8
2019-02-06T09:33:11.570Z,20.8
2019-02-06T09:34:01.943Z,20.8
2019-02-06T09:34:51.410Z,20.8
2019-02-06T09:35:41.740Z,20.8
2019-02-06T09:36:32.470Z,20.8
2019-02-06T09:37:22.142Z,20.8
2019-02-06T09:38:12.135Z,20.8
2019-02-06T09:39:14.892Z,20.8
2019-02-06T09:39:55.405Z,20.8
2019-02-06T09:40:42.377Z,20.8
2019-02-06T09:41:32.847Z,20.8
2019-02-06T09:42:22.597Z,20.8
2019-02-06T09:43:12.262Z,20.8
2019-02-06T09:44:02.300Z,20.8
2019-02-06T09:44:53.185Z,20.8
2019-02-06T09:45:44.189Z,20.8
2019-02-06T09:46:32.468Z,20.8
2019-02-06T09:47:23.159Z,20.8
2019-02-06T09:48:12.979Z,20.8
2019-02-06T09:49:04.819Z,20.8
2019-02-06T09:49:56.120Z,20.8
2019-02-06T09:50:42.507Z,20.8
2019-02-06T09:51:33.506Z,20.8
2019-02-06T09:52:29.810Z,20.8
2019-02-06T09:53:12.651Z,20.8
2019-02-06T09:54:03.589Z,20.8
2019-02-06T09:54:55.371Z,20.8
2019-02-06T09:55:42.696Z,20.8
2019-02-06T09:56:33.554Z,20.8
2019-02-06T09:57:23.520Z,20.8
2019-02-06T09:58:14.064Z,20.8
2019-02-06T09:59:04.251Z,20.8
2019-02-06T09:59:53.226Z,20.8
2019-02-06T10:00:44.258Z,20.8
2019-02-06T10:01:34.036Z,20.8
2019-02-06T10:02:23.564Z,20.8
2019-02-06T10:03:13.118Z,20.8
2019-02-06T10:04:06.290Z,20.8
2019-02-06T10:04:54.315Z,20.8
2019-02-06T10:07:21.575Z,20.8
2019-02-06T10:08:12.107Z,20.8
2019-02-06T10:09:01.131Z,20.8
2019-02-06T10:09:54.410Z,20.8
2019-02-06T10:10:41.675Z,20.8
2019-02-06T10:11:32.027Z,20.8
2019-02-06T10:12:21.538Z,20.8
2019-02-06T10:13:12.800Z,20.8
2019-02-06T10:14:02.942Z,20.8
2019-02-06T10:14:52.255Z,20.8
2019-02-06T10:15:42.364Z,20.8
2019-02-06T10:16:32.232Z,20.8
2019-02-06T10:17:21.920Z,20.8
2019-02-06T10:18:12.518Z,20.8
2019-02-06T10:19:04.660Z,20.8
2019-02-06T10:19:52.357Z,20.8
2019-02-06T10:20:42.404Z,20.8
2019-02-06T10:21:32.899Z,20.8
2019-02-06T10:22:22.505Z,20.8
2019-02-06T10:23:12.633Z,20.8
2019-02-06T10:24:02.090Z,20.8
2019-02-06T10:24:53.212Z,20.8
2019-02-06T10:25:42.632Z,20.7
2019-02-06T10:26:32.790Z,20.7
2019-02-06T10:27:26.050Z,20.7
2019-02-06T10:28:14.631Z,20.7
2019-02-06T10:29:02.774Z,20.7
2019-02-06T10:29:52.632Z,20.7
2019-02-06T10:30:43.352Z,20.7
2019-02-06T10:31:35.569Z,20.7
2019-02-06T10:32:23.479Z,20.7
2019-02-06T10:33:13.569Z,20.7
2019-02-06T10:34:04.169Z,20.7
2019-02-06T10:34:53.186Z,20.7
2019-02-06T10:35:43.451Z,20.7
2019-02-06T10:36:33.258Z,20.7
2019-02-06T10:37:25.428Z,20.7
2019-02-06T10:38:13.339Z,20.7
2019-02-06T10:39:03.669Z,20.7
2019-02-06T10:39:53.711Z,20.7
2019-02-06T10:40:44.064Z,20.7
2019-02-06T10:41:33.639Z,20.7
2019-02-06T10:42:23.928Z,20.6
2019-02-06T10:43:16.706Z,20.7
2019-02-06T10:44:03.986Z,20.7
2019-02-06T10:44:54.400Z,20.7
2019-02-06T10:45:44.608Z,20.7
2019-02-06T10:46:33.691Z,20.6
2019-02-06T10:47:24.511Z,20.6
2019-02-06T10:48:14.384Z,20.6
2019-02-06T10:49:04.093Z,20.6
2019-02-06T10:49:54.728Z,20.6
2019-02-06T10:50:44.589Z,20.7
2019-02-06T10:51:33.798Z,20.6
2019-02-06T10:52:27.205Z,20.6
2019-02-06T10:53:14.418Z,20.6
2019-02-06T10:54:05.007Z,20.6
2019-02-06T10:54:55.076Z,20.6
2019-02-06T10:55:44.008Z,20.6
2019-02-06T10:56:34.627Z,20.6
2019-02-06T10:57:24.795Z,20.6
2019-02-06T10:58:16.089Z,20.6
2019-02-06T10:59:05.352Z,20.6
2019-02-06T10:59:54.842Z,20.6
2019-02-06T11:00:45.590Z,20.6
2019-02-06T11:01:37.203Z,20.6
2019-02-06T11:02:24.810Z,20.6
2019-02-06T11:03:14.916Z,20.6
2019-02-06T11:04:05.350Z,20.6
2019-02-06T11:04:55.565Z,20.6
2019-02-06T11:05:45.062Z,20.6
2019-02-06T11:06:35.357Z,20.6
2019-02-06T11:07:26.959Z,20.6
2019-02-06T11:08:14.949Z,20.6
2019-02-06T11:09:05.544Z,20.6
2019-02-06T11:09:55.549Z,20.6
2019-02-06T11:10:46.984Z,20.6
2019-02-06T11:11:36.557Z,20.6
2019-02-06T11:12:29.234Z,20.6
2019-02-06T11:13:16.118Z,20.6
2019-02-06T11:14:06.667Z,20.6
2019-02-06T11:14:56.427Z,20.6
2019-02-06T11:15:46.489Z,20.6
2019-02-06T11:16:39.031Z,20.6
2019-02-06T11:17:26.899Z,20.6
2019-02-06T11:18:16.399Z,20.6
2019-02-06T11:19:07.017Z,20.6
2019-02-06T11:19:56.707Z,20.6
2019-02-06T11:20:46.381Z,20.6
2019-02-06T11:21:36.611Z,20.6
2019-02-06T11:22:27.193Z,20.6
2019-02-06T11:23:17.578Z,20.6
2019-02-06T11:24:06.053Z,20.6
2019-02-06T11:24:56.351Z,20.6
2019-02-06T11:25:49.816Z,20.6
2019-02-06T11:26:37.265Z,20.6
2019-02-06T11:27:27.023Z,20.6
2019-02-06T11:28:16.315Z,20.6
2019-02-06T11:29:07.655Z,20.6
2019-02-06T11:29:57.092Z,20.6
2019-02-06T11:30:47.290Z,20.6
2019-02-06T11:31:37.981Z,20.6
2019-02-06T11:32:26.853Z,20.6
2019-02-06T11:33:17.696Z,20.6
2019-02-06T11:34:07.492Z,20.6
2019-02-06T11:35:02.278Z,20.6
2019-02-06T11:35:47.660Z,20.6
2019-02-06T11:36:37.452Z,20.6
2019-02-06T11:37:27.980Z,20.6
2019-02-06T11:38:16.933Z,20.6
2019-02-06T11:39:08.135Z,20.6
2019-02-06T11:40:04.728Z,20.6
2019-02-06T11:40:49.216Z,20.6
2019-02-06T11:41:37.720Z,20.6
2019-02-06T11:42:27.282Z,20.5
2019-02-06T11:43:17.585Z,20.5
2019-02-06T11:44:22.296Z,20.5
2019-02-06T11:44:58.802Z,20.6
2019-02-06T11:45:48.392Z,20.5
2019-02-06T11:46:38.364Z,20.5
2019-02-06T11:47:28.999Z,20.5
2019-02-06T11:48:18.731Z,20.5
2019-02-06T11:49:08.829Z,20.6
2019-02-06T11:50:00.820Z,20.6
2019-02-06T11:50:48.480Z,20.5
2019-02-06T11:51:38.982Z,20.5
2019-02-06T11:52:29.016Z,20.5
2019-02-06T11:53:20.640Z,20.5
2019-02-06T11:54:09.169Z,20.5
2019-02-06T11:54:59.056Z,20.5
2019-02-06T11:55:49.269Z,20.5
2019-02-06T11:56:38.778Z,20.5
2019-02-06T11:57:30.321Z,20.5
2019-02-06T11:58:18.902Z,20.5
2019-02-06T11:59:11.894Z,20.5
2019-02-06T11:59:59.292Z,20.5
2019-02-06T12:00:52.346Z,20.5
2019-02-06T12:01:39.436Z,20.5
2019-02-06T12:02:41.833Z,20.5
2019-02-06T12:03:22.086Z,20.5
2019-02-06T12:04:09.643Z,20.5
2019-02-06T12:05:00.811Z,20.5
2019-02-06T12:07:20.263Z,20.4
2019-02-06T12:08:14.978Z,20.5
2019-02-06T12:09:00.648Z,20.4
2019-02-06T12:09:50.528Z,20.5
2019-02-06T12:10:44.010Z,20.4
2019-02-06T12:11:31.683Z,20.5
2019-02-06T12:12:21.407Z,20.4
2019-02-06T12:13:12.050Z,20.4
2019-02-06T12:14:02.480Z,20.4
2019-02-06T12:14:51.320Z,20.4
2019-02-06T12:15:43.898Z,20.4
2019-02-06T12:16:34.630Z,20.4
2019-02-06T12:17:22.331Z,20.4
2019-02-06T12:18:11.780Z,20.4
2019-02-06T12:19:16.805Z,20.4
2019-02-06T12:19:54.937Z,20.4
2019-02-06T12:20:42.020Z,20.4
2019-02-06T12:21:32.105Z,20.4
2019-02-06T12:22:22.399Z,20.4
2019-02-06T12:23:12.729Z,20.4
2019-02-06T12:24:03.074Z,20.4
2019-02-06T12:24:52.289Z,20.4
2019-02-06T12:25:44.832Z,20.3
2019-02-06T12:26:32.692Z,20.4
2019-02-06T12:27:22.204Z,20.3
2019-02-06T12:28:13.082Z,20.3
2019-02-06T12:29:03.454Z,20.3
2019-02-06T12:29:53.452Z,20.3
2019-02-06T12:30:43.684Z,20.3
2019-02-06T12:31:33.325Z,20.3
2019-02-06T12:32:23.639Z,20.3
2019-02-06T12:33:13.159Z,20.3
2019-02-06T12:34:03.644Z,20.3
2019-02-06T12:34:56.366Z,20.3
2019-02-06T12:35:43.141Z,20.3
2019-02-06T12:36:33.378Z,20.3
2019-02-06T12:37:23.431Z,20.3
2019-02-06T12:38:13.115Z,20.3
2019-02-06T12:39:04.121Z,20.3
2019-02-06T12:39:53.953Z,20.3
2019-02-06T12:40:45.271Z,20.3
2019-02-06T12:41:34.273Z,20.3
2019-02-06T12:42:23.576Z,20.3
2019-02-06T12:43:16.246Z,20.3
2019-02-06T12:44:03.508Z,20.3
2019-02-06T12:44:53.010Z,20.3
2019-02-06T12:45:43.261Z,20.3
2019-02-06T12:46:36.195Z,20.3